KOLY/OLY METAR and TAF weather

Enter ICAO airport designator
Station Type Date Time Source
KOLY METAR 2020/04/06 10:55 UTC NOAA

KOLY 061055Z AUTO 00000KT 7SM CLR 10/09 A3011 RMK AO2 T00960091


Station Type Date Time Source
KOLY Decoded METAR 2020/04/06 10:55 UTC NOAA

Olney-Noble, Olney-Noble Airport, IL, United States (KOLY) 38-43-19N 088-10-35W
Apr 06, 2020 - 06:55 AM EDT / 2020.04.06 1055 UTC
Wind: Calm:0
Visibility: 7 mile(s):0
Sky conditions: clear
Temperature: 49.3 F (9.6 C)
Dew Point: 48.4 F (9.1 C)
Relative Humidity: 96%
Pressure (altimeter): 30.11 in. Hg (1019 hPa)
ob: KOLY 061055Z AUTO 00000KT 7SM CLR 10/09 A3011 RMK AO2 T00960091
cycle: 11

Station Type Date Time Source
KOLY TAF UTC NOAA

Error!

Example: see airport list